createdAt,value
2024-04-15T00:01:55.583Z,10.06
2024-04-15T00:04:25.440Z,10.02
2024-04-15T00:06:53.053Z,10.07
2024-04-15T00:09:21.059Z,10.05
2024-04-15T00:11:49.018Z,10.11
2024-04-15T00:14:17.011Z,10.07
2024-04-15T00:16:47.341Z,10.14
2024-04-15T00:19:15.463Z,10.10
2024-04-15T00:21:43.113Z,10.16
2024-04-15T00:24:10.650Z,10.17
2024-04-15T00:26:41.165Z,10.21
2024-04-15T00:29:09.189Z,10.19
2024-04-15T00:31:36.915Z,10.17
2024-04-15T00:34:07.500Z,10.20
2024-04-15T00:36:37.286Z,10.28
2024-04-15T00:39:05.044Z,10.23
2024-04-15T00:41:33.022Z,10.28
2024-04-15T00:44:00.739Z,10.24
2024-04-15T00:46:28.715Z,10.31
2024-04-15T00:48:57.235Z,10.28
2024-04-15T00:51:28.315Z,10.22
2024-04-15T00:53:57.112Z,10.34
2024-04-15T00:56:25.116Z,10.23
2024-04-15T00:58:52.725Z,10.28
2024-04-15T01:01:20.855Z,10.32
2024-04-15T01:03:49.398Z,10.19
2024-04-15T01:06:17.233Z,10.20
2024-04-15T01:08:50.237Z,10.20
2024-04-15T01:11:17.903Z,10.38
2024-04-15T01:13:45.440Z,10.33
2024-04-15T01:16:13.201Z,10.35
2024-04-15T01:18:41.228Z,10.26
2024-04-15T01:21:10.361Z,10.39
2024-04-15T01:23:41.001Z,10.30
2024-04-15T01:26:13.429Z,10.21
2024-04-15T01:28:41.450Z,10.36
2024-04-15T01:31:09.515Z,10.44
2024-04-15T01:33:37.257Z,10.38
2024-04-15T01:36:05.337Z,10.33
2024-04-15T01:38:33.118Z,10.39
2024-04-15T01:41:00.619Z,10.41
2024-04-15T01:43:30.710Z,10.25
2024-04-15T01:45:58.571Z,10.36
2024-04-15T01:48:26.517Z,10.28
2024-04-15T01:50:57.272Z,10.29
2024-04-15T01:53:31.222Z,10.26
2024-04-15T01:55:59.267Z,10.20
2024-04-15T01:58:26.820Z,10.24
2024-04-15T02:01:06.372Z,10.19
2024-04-15T02:03:35.464Z,10.14
2024-04-15T02:06:03.036Z,10.12
2024-04-15T02:08:34.459Z,10.09
2024-04-15T02:11:02.238Z,10.16
2024-04-15T02:13:30.328Z,10.17
2024-04-15T02:15:58.082Z,10.08
2024-04-15T02:18:28.812Z,10.10
2024-04-15T02:20:56.601Z,9.98
2024-04-15T02:23:24.402Z,10.01
2024-04-15T02:25:52.251Z,9.94
2024-04-15T02:28:20.244Z,9.93
2024-04-15T02:30:50.644Z,9.90
2024-04-15T02:33:18.821Z,9.88
2024-04-15T02:35:52.035Z,9.92
2024-04-15T02:38:19.626Z,9.88
2024-04-15T02:40:47.482Z,9.85
2024-04-15T02:43:15.485Z,9.83
2024-04-15T02:45:43.390Z,9.85
2024-04-15T02:48:11.509Z,9.83
2024-04-15T02:50:39.447Z,9.81
2024-04-15T02:53:09.820Z,9.75
2024-04-15T02:55:37.445Z,9.84
2024-04-15T02:58:05.624Z,9.83
2024-04-15T03:00:35.173Z,9.78
2024-04-15T03:03:02.975Z,9.86
2024-04-15T03:05:30.921Z,9.87
2024-04-15T03:07:58.408Z,9.86
2024-04-15T03:10:29.672Z,9.87
2024-04-15T03:12:57.487Z,9.81
2024-04-15T03:15:25.417Z,9.83
2024-04-15T03:17:54.880Z,9.86
2024-04-15T03:20:24.128Z,9.88
2024-04-15T03:22:54.290Z,9.81
2024-04-15T03:25:23.900Z,9.79
2024-04-15T03:27:54.009Z,9.83
2024-04-15T03:30:21.820Z,9.75
2024-04-15T03:32:49.456Z,9.81
2024-04-15T03:35:17.159Z,9.74
2024-04-15T03:37:44.713Z,9.68
2024-04-15T03:40:12.633Z,9.80
2024-04-15T03:42:40.510Z,9.70
2024-04-15T03:45:10.908Z,9.83
2024-04-15T03:47:38.983Z,9.75
2024-04-15T03:50:07.691Z,9.85
2024-04-15T03:52:35.774Z,9.75
2024-04-15T03:55:04.883Z,9.77
2024-04-15T03:57:32.682Z,9.73
2024-04-15T04:00:04.491Z,9.70
2024-04-15T04:02:35.437Z,9.65
2024-04-15T04:05:03.329Z,9.72
2024-04-15T04:07:33.022Z,9.70
2024-04-15T04:10:02.337Z,9.74
2024-04-15T04:12:30.341Z,9.75
2024-04-15T04:14:57.847Z,9.74
2024-04-15T04:17:25.456Z,9.75
2024-04-15T04:19:56.060Z,9.66
2024-04-15T04:22:26.413Z,9.59
2024-04-15T04:24:55.517Z,9.56
2024-04-15T04:27:26.345Z,9.53
2024-04-15T04:29:57.234Z,9.52
2024-04-15T04:32:25.163Z,9.48
2024-04-15T04:34:52.872Z,9.49
2024-04-15T04:37:25.552Z,9.52
2024-04-15T04:39:53.438Z,9.44
2024-04-15T04:42:20.983Z,9.45
2024-04-15T04:44:48.724Z,9.45
2024-04-15T04:47:17.427Z,9.52
2024-04-15T04:49:45.112Z,9.53
2024-04-15T04:52:12.567Z,9.53
2024-04-15T04:54:43.716Z,9.42
2024-04-15T04:57:11.400Z,9.43
2024-04-15T04:59:39.361Z,9.37
2024-04-15T05:02:08.175Z,9.42
2024-04-15T05:04:36.072Z,9.38
2024-04-15T05:07:05.540Z,9.38
2024-04-15T05:09:33.308Z,9.39
2024-04-15T05:12:04.237Z,9.31
2024-04-15T05:14:32.048Z,9.45
2024-04-15T05:16:59.911Z,9.36
2024-04-15T05:19:28.109Z,9.53
2024-04-15T05:21:57.082Z,9.58
2024-04-15T05:24:32.867Z,9.53
2024-04-15T05:27:00.636Z,9.64
2024-04-15T05:29:31.160Z,9.57
2024-04-15T05:32:01.368Z,9.57
2024-04-15T05:34:29.233Z,9.66
2024-04-15T05:36:58.984Z,9.64
2024-04-15T05:39:27.127Z,9.73
2024-04-15T05:41:54.541Z,9.83
2024-04-15T05:44:22.074Z,9.77
2024-04-15T05:46:55.743Z,9.79
2024-04-15T05:49:23.516Z,9.81
2024-04-15T05:51:51.832Z,9.81
2024-04-15T05:54:20.275Z,9.97
2024-04-15T05:56:53.763Z,10.21
2024-04-15T05:59:21.748Z,10.19
2024-04-15T06:01:52.279Z,10.30
2024-04-15T06:04:20.012Z,10.38
2024-04-15T06:06:47.518Z,10.61
2024-04-15T06:09:15.950Z,10.90
2024-04-15T06:11:43.809Z,10.76
2024-04-15T06:14:14.382Z,10.78
2024-04-15T06:16:42.868Z,10.66
2024-04-15T06:19:13.594Z,10.77
2024-04-15T06:21:41.280Z,10.70
2024-04-15T06:24:09.196Z,10.67
2024-04-15T06:26:44.404Z,10.94
2024-04-15T06:29:14.697Z,10.96
2024-04-15T06:31:42.555Z,10.83
2024-04-15T06:34:12.930Z,11.03
2024-04-15T06:36:40.613Z,10.87
2024-04-15T06:39:11.333Z,10.94
2024-04-15T06:41:40.165Z,10.94
2024-04-15T06:44:07.711Z,11.00
2024-04-15T06:46:37.736Z,11.08
2024-04-15T06:49:06.203Z,11.20
2024-04-15T06:51:39.134Z,11.16
2024-04-15T06:54:07.775Z,11.35
2024-04-15T06:56:35.302Z,11.13
2024-04-15T06:59:03.233Z,11.30
2024-04-15T07:01:32.020Z,11.22
2024-04-15T07:04:03.900Z,11.41
2024-04-15T07:06:33.866Z,11.18
2024-04-15T07:09:05.514Z,11.42
2024-04-15T07:11:34.158Z,11.39
2024-04-15T07:14:01.988Z,11.39
2024-04-15T07:16:29.976Z,11.41
2024-04-15T07:18:57.785Z,11.57
2024-04-15T07:21:25.671Z,11.47
2024-04-15T07:23:53.452Z,11.68
2024-04-15T07:26:24.174Z,11.53
2024-04-15T07:28:58.650Z,11.61
2024-04-15T07:31:27.890Z,11.53
2024-04-15T07:33:58.278Z,11.58
2024-04-15T07:36:25.663Z,11.66
2024-04-15T07:38:54.247Z,11.67
2024-04-15T07:41:24.751Z,11.44
2024-04-15T07:43:53.579Z,11.48
2024-04-15T07:46:22.954Z,11.49
2024-04-15T07:48:52.121Z,11.64
2024-04-15T07:51:21.978Z,11.56
2024-04-15T07:53:56.192Z,11.35
2024-04-15T07:56:26.616Z,11.58
2024-04-15T07:58:58.429Z,11.39
2024-04-15T08:01:26.426Z,11.25
2024-04-15T08:03:57.075Z,11.25
2024-04-15T08:06:25.013Z,11.25
2024-04-15T08:08:55.798Z,11.00
2024-04-15T08:11:26.116Z,10.99
2024-04-15T08:14:02.951Z,10.93
2024-04-15T08:16:31.157Z,10.84
2024-04-15T08:18:58.967Z,11.00
2024-04-15T08:21:27.148Z,11.13
2024-04-15T08:23:57.371Z,10.98
2024-04-15T08:26:32.591Z,11.08
2024-04-15T08:29:05.230Z,11.22
2024-04-15T08:31:34.060Z,11.14
2024-04-15T08:34:07.659Z,10.96
2024-04-15T08:36:36.127Z,11.13
2024-04-15T08:39:05.060Z,11.32
2024-04-15T08:41:53.380Z,11.18
2024-04-15T08:44:25.609Z,11.31
2024-04-15T08:46:54.420Z,11.51
2024-04-15T08:49:24.726Z,11.50
2024-04-15T08:51:52.603Z,11.54
2024-04-15T08:54:24.255Z,11.54
2024-04-15T08:57:01.757Z,11.58
2024-04-15T08:59:40.254Z,11.80
2024-04-15T09:02:08.270Z,12.06
2024-04-15T09:04:36.261Z,12.13
2024-04-15T09:07:04.727Z,12.16
2024-04-15T09:09:32.697Z,12.27
2024-04-15T09:12:02.941Z,11.75
2024-04-15T09:14:30.571Z,11.66
2024-04-15T09:16:58.315Z,11.23
2024-04-15T09:19:28.091Z,11.18
2024-04-15T09:22:01.460Z,11.31
2024-04-15T09:24:29.601Z,11.07
2024-04-15T09:27:00.679Z,11.19
2024-04-15T09:29:31.582Z,11.19
2024-04-15T09:31:59.348Z,11.05
2024-04-15T09:34:27.246Z,11.02
2024-04-15T09:36:56.230Z,11.24
2024-04-15T09:39:29.288Z,11.27
2024-04-15T09:42:03.459Z,11.20
2024-04-15T09:44:33.734Z,11.18
2024-04-15T09:47:04.310Z,11.05
2024-04-15T09:49:33.157Z,10.70
2024-04-15T09:52:05.216Z,10.71
2024-04-15T09:54:35.089Z,10.75
2024-04-15T09:57:11.993Z,10.73
2024-04-15T09:59:45.942Z,10.84
2024-04-15T10:02:28.874Z,10.77
2024-04-15T10:05:03.949Z,10.75
2024-04-15T10:07:33.745Z,10.71
2024-04-15T10:10:02.390Z,10.79
2024-04-15T10:12:31.331Z,11.09
2024-04-15T10:15:01.790Z,11.09
2024-04-15T10:17:29.572Z,11.88
2024-04-15T10:19:57.396Z,11.74
2024-04-15T10:22:27.354Z,11.92
2024-04-15T10:24:58.085Z,11.77
2024-04-15T10:27:26.260Z,12.16
2024-04-15T10:29:54.295Z,11.72
2024-04-15T10:32:27.450Z,11.85
2024-04-15T10:35:00.631Z,11.69
2024-04-15T10:37:33.685Z,11.81
2024-04-15T10:40:04.078Z,11.39
2024-04-15T10:42:32.217Z,11.74
2024-04-15T10:45:00.531Z,11.22
2024-04-15T10:47:31.794Z,11.50
2024-04-15T10:50:02.417Z,11.33
2024-04-15T10:52:30.038Z,11.21
2024-04-15T10:54:58.168Z,11.56
2024-04-15T10:57:26.727Z,11.68
2024-04-15T10:59:59.650Z,11.73
2024-04-15T11:02:30.573Z,11.46
2024-04-15T11:05:00.725Z,11.31
2024-04-15T11:07:28.556Z,10.94
2024-04-15T11:09:57.575Z,10.94
2024-04-15T11:12:28.395Z,10.72
2024-04-15T11:14:56.999Z,10.88
2024-04-15T11:17:24.944Z,10.79
2024-04-15T11:20:02.804Z,10.71
2024-04-15T11:22:30.721Z,10.79
2024-04-15T11:24:58.777Z,11.00
2024-04-15T11:27:27.470Z,10.99
2024-04-15T11:30:03.954Z,10.89
2024-04-15T11:32:33.992Z,10.74
2024-04-15T11:35:05.662Z,10.94
2024-04-15T11:37:36.613Z,11.29
2024-04-15T11:40:04.582Z,11.65
2024-04-15T11:42:35.334Z,11.66
2024-04-15T11:45:07.137Z,11.81
2024-04-15T11:47:35.501Z,11.58
2024-04-15T11:50:09.827Z,11.55
2024-04-15T11:53:28.013Z,10.98
2024-04-15T11:55:55.899Z,10.75
2024-04-15T11:58:24.297Z,10.95
2024-04-15T12:00:54.646Z,10.89
2024-04-15T12:03:34.112Z,11.02
2024-04-15T12:06:06.926Z,11.16
2024-04-15T12:08:36.663Z,11.09
2024-04-15T12:11:07.956Z,10.89
2024-04-15T12:13:35.795Z,10.78
2024-04-15T12:16:03.927Z,7.50
2024-04-15T12:18:31.469Z,6.18
2024-04-15T12:20:59.111Z,6.08
2024-04-15T12:23:31.153Z,5.90
2024-04-15T12:25:58.844Z,6.05
2024-04-15T12:28:27.127Z,6.06
2024-04-15T12:30:54.545Z,6.10
2024-04-15T12:33:23.535Z,6.05
2024-04-15T12:35:52.750Z,6.29
2024-04-15T12:38:21.789Z,6.42
2024-04-15T12:40:52.527Z,6.35
2024-04-15T12:43:20.171Z,6.33
2024-04-15T12:45:50.682Z,6.46
2024-04-15T12:48:19.627Z,6.55
2024-04-15T12:50:51.183Z,6.61
2024-04-15T12:53:19.241Z,6.80
2024-04-15T12:55:47.961Z,6.95
2024-04-15T12:58:20.066Z,6.93
2024-04-15T13:00:48.108Z,6.98
2024-04-15T13:03:17.487Z,7.24
2024-04-15T13:05:46.197Z,7.05
2024-04-15T13:08:13.721Z,7.24
2024-04-15T13:10:43.877Z,7.48
2024-04-15T13:13:11.658Z,7.51
2024-04-15T13:15:44.862Z,7.47
2024-04-15T13:18:12.520Z,7.47
2024-04-15T13:20:40.427Z,7.68
2024-04-15T13:23:09.273Z,7.58
2024-04-15T13:25:37.197Z,7.54
2024-04-15T13:28:05.351Z,7.44
2024-04-15T13:30:36.195Z,7.54
2024-04-15T13:33:09.956Z,7.52
2024-04-15T13:35:38.303Z,7.61
2024-04-15T13:41:43.059Z,7.64
2024-04-15T13:44:10.804Z,7.96
2024-04-15T13:46:38.552Z,8.23
2024-04-15T13:49:08.597Z,8.23
2024-04-15T13:51:36.493Z,8.39
2024-04-15T13:54:06.508Z,8.83
2024-04-15T13:56:34.134Z,8.89
2024-04-15T13:59:02.107Z,8.80
2024-04-15T14:01:29.654Z,8.46
2024-04-15T14:03:57.652Z,8.15
2024-04-15T14:06:29.302Z,8.00
2024-04-15T14:08:57.156Z,7.98
2024-04-15T14:11:24.891Z,8.12
2024-04-15T14:13:53.111Z,8.45
2024-04-15T14:16:20.878Z,8.33
2024-04-15T14:18:48.521Z,8.33
2024-04-15T14:21:16.755Z,8.54
2024-04-15T14:23:46.933Z,8.51
2024-04-15T14:26:14.671Z,8.50
2024-04-15T14:28:44.508Z,8.45
2024-04-15T14:31:14.534Z,8.56
2024-04-15T14:33:42.043Z,8.51
2024-04-15T14:36:10.492Z,8.69
2024-04-15T14:38:44.588Z,8.92
2024-04-15T14:41:15.539Z,9.20
2024-04-15T14:43:45.169Z,9.56
2024-04-15T14:46:13.119Z,9.23
2024-04-15T14:48:40.789Z,9.11
2024-04-15T14:51:08.452Z,9.16
2024-04-15T14:53:38.502Z,9.01
2024-04-15T14:56:06.444Z,9.01
2024-04-15T14:58:36.835Z,9.04
2024-04-15T15:01:05.143Z,9.16
2024-04-15T15:03:32.768Z,9.40
2024-04-15T15:06:00.564Z,9.58
2024-04-15T15:08:29.118Z,9.75
2024-04-15T15:11:04.344Z,9.71
2024-04-15T15:13:36.860Z,9.68
2024-04-15T15:16:04.945Z,9.67
2024-04-15T15:18:32.987Z,9.48
2024-04-15T15:21:07.923Z,9.66
2024-04-15T15:23:44.155Z,10.34
2024-04-15T15:26:14.091Z,10.32
2024-04-15T15:28:44.796Z,10.22
2024-04-15T15:31:12.610Z,9.98
2024-04-15T15:33:42.706Z,10.06
2024-04-15T15:36:15.326Z,9.98
2024-04-15T15:38:44.306Z,9.73
2024-04-15T15:41:13.147Z,9.73
2024-04-15T15:43:43.543Z,9.96
2024-04-15T15:46:11.844Z,9.64
2024-04-15T15:48:39.593Z,9.45
2024-04-15T15:51:07.220Z,9.41
2024-04-15T15:53:35.718Z,9.85
2024-04-15T15:56:03.772Z,9.90
2024-04-15T15:58:31.344Z,10.22
2024-04-15T16:01:01.749Z,9.95
2024-04-15T16:03:29.705Z,9.53
2024-04-15T16:05:57.231Z,9.40
2024-04-15T16:08:24.687Z,7.78
2024-04-15T16:10:52.436Z,7.32
2024-04-15T16:13:20.322Z,7.37
2024-04-15T16:15:47.897Z,7.66
2024-04-15T16:18:18.109Z,8.11
2024-04-15T16:20:48.615Z,9.08
2024-04-15T16:23:16.117Z,9.34
2024-04-15T16:25:44.070Z,9.66
2024-04-15T16:28:12.012Z,9.90
2024-04-15T16:30:39.636Z,10.04
2024-04-15T16:33:08.063Z,10.19
2024-04-15T16:35:38.190Z,10.08
2024-04-15T16:38:07.101Z,10.36
2024-04-15T16:40:34.876Z,10.55
2024-04-15T16:43:02.801Z,10.39
2024-04-15T16:45:30.896Z,10.16
2024-04-15T16:47:58.382Z,9.52
2024-04-15T16:50:28.886Z,9.21
2024-04-15T16:52:59.266Z,9.09
2024-04-15T16:55:27.236Z,9.18
2024-04-15T16:57:55.124Z,9.30
2024-04-15T17:00:22.827Z,9.17
2024-04-15T17:02:51.628Z,9.00
2024-04-15T17:05:19.172Z,9.03
2024-04-15T17:07:47.532Z,9.04
2024-04-15T17:10:18.023Z,9.04
2024-04-15T17:12:46.834Z,8.99
2024-04-15T17:15:14.588Z,9.01
2024-04-15T17:17:43.162Z,8.99
2024-04-15T17:20:16.017Z,9.04
2024-04-15T17:22:45.510Z,9.04
2024-04-15T17:25:13.151Z,9.02
2024-04-15T17:27:49.421Z,9.04
2024-04-15T17:30:17.040Z,8.96
2024-04-15T17:32:45.389Z,8.91
2024-04-15T17:35:13.333Z,8.95
2024-04-15T17:37:42.339Z,9.01
2024-04-15T17:40:10.964Z,9.07
2024-04-15T17:42:38.768Z,9.03
2024-04-15T17:45:09.353Z,9.17
2024-04-15T17:47:37.055Z,8.95
2024-04-15T17:50:05.511Z,8.82
2024-04-15T17:52:33.393Z,8.66
2024-04-15T17:55:02.317Z,8.62
2024-04-15T17:57:31.256Z,8.57
2024-04-15T17:59:59.241Z,8.65
2024-04-15T18:02:29.632Z,8.68
2024-04-15T18:04:57.573Z,8.60
2024-04-15T18:07:25.211Z,8.63
2024-04-15T18:09:52.887Z,8.66
2024-04-15T18:12:20.521Z,8.66
2024-04-15T18:14:48.575Z,8.41
2024-04-15T18:17:16.547Z,8.09
2024-04-15T18:19:46.911Z,7.75
2024-04-15T18:22:14.640Z,7.45
2024-04-15T18:24:43.436Z,7.28
2024-04-15T18:27:11.083Z,7.17
2024-04-15T18:29:38.654Z,7.28
2024-04-15T18:32:06.708Z,7.31
2024-04-15T18:34:34.459Z,7.28
2024-04-15T18:37:07.233Z,7.28
2024-04-15T18:39:35.681Z,7.28
2024-04-15T18:42:03.343Z,7.33
2024-04-15T18:44:32.250Z,7.36
2024-04-15T18:47:04.570Z,7.28
2024-04-15T18:49:32.364Z,7.55
2024-04-15T18:52:01.426Z,7.61
2024-04-15T18:54:31.648Z,7.71
2024-04-15T18:57:02.700Z,7.73
2024-04-15T18:59:30.529Z,7.41
2024-04-15T19:01:57.994Z,6.99
2024-04-15T19:04:37.253Z,6.71
2024-04-15T19:07:06.960Z,6.56
2024-04-15T19:09:37.259Z,6.29
2024-04-15T19:12:07.075Z,6.19
2024-04-15T19:14:45.883Z,6.21
2024-04-15T19:17:23.294Z,6.32
2024-04-15T19:19:54.793Z,6.37
2024-04-15T19:22:22.276Z,6.32
2024-04-15T19:24:55.667Z,6.46
2024-04-15T19:27:23.536Z,6.48
2024-04-15T19:29:52.804Z,6.68
2024-04-15T19:32:20.389Z,6.76
2024-04-15T19:34:49.431Z,6.79
2024-04-15T19:37:17.239Z,6.83
2024-04-15T19:39:48.971Z,6.81
2024-04-15T19:42:20.128Z,6.89
2024-04-15T19:44:47.532Z,6.97
2024-04-15T19:47:15.195Z,6.92
2024-04-15T19:49:43.618Z,6.87
2024-04-15T19:52:11.199Z,6.97
2024-04-15T19:54:38.740Z,6.95
2024-04-15T19:57:06.734Z,7.00
2024-04-15T19:59:36.980Z,7.04
2024-04-15T20:02:05.043Z,7.15
2024-04-15T20:04:32.494Z,7.18
2024-04-15T20:06:59.862Z,6.55
2024-04-15T20:09:27.591Z,6.23
2024-04-15T20:11:55.204Z,6.01
2024-04-15T20:14:22.943Z,5.99
2024-04-15T20:17:01.353Z,6.17
2024-04-15T20:19:30.013Z,6.20
2024-04-15T20:21:57.775Z,6.21
2024-04-15T20:24:26.925Z,6.24
2024-04-15T20:26:54.716Z,6.23
2024-04-15T20:29:22.555Z,6.28
2024-04-15T20:31:52.850Z,6.09
2024-04-15T20:34:20.685Z,6.13
2024-04-15T20:36:48.160Z,6.07
2024-04-15T20:39:16.148Z,5.93
2024-04-15T20:41:44.535Z,5.84
2024-04-15T20:44:11.964Z,5.88
2024-04-15T20:46:39.532Z,5.74
2024-04-15T20:49:09.856Z,5.80
2024-04-15T20:51:37.727Z,5.85
2024-04-15T20:54:05.631Z,6.06
2024-04-15T20:56:33.939Z,6.06
2024-04-15T20:59:01.412Z,6.02
2024-04-15T21:01:29.200Z,6.08
2024-04-15T21:03:59.047Z,6.08
2024-04-15T21:06:29.820Z,6.21
2024-04-15T21:08:59.481Z,6.18
2024-04-15T21:11:27.097Z,6.26
2024-04-15T21:13:58.794Z,6.28
2024-04-15T21:16:26.571Z,6.26
2024-04-15T21:18:54.175Z,6.35
2024-04-15T21:21:21.632Z,6.35
2024-04-15T21:23:51.834Z,6.45
2024-04-15T21:26:19.404Z,6.45
2024-04-15T21:28:46.868Z,6.56
2024-04-15T21:31:14.646Z,6.52
2024-04-15T21:33:42.008Z,6.53
2024-04-15T21:36:09.838Z,6.57
2024-04-15T21:38:40.003Z,6.60
2024-04-15T21:41:10.228Z,6.68
2024-04-15T21:43:38.402Z,6.68
2024-04-15T21:46:09.073Z,6.57
2024-04-15T21:48:36.564Z,6.78
2024-04-15T21:51:04.850Z,6.71
2024-04-15T21:53:32.539Z,6.87
2024-04-15T21:56:00.005Z,6.98
2024-04-15T21:58:30.181Z,7.24
2024-04-15T22:00:58.084Z,7.55
2024-04-15T22:03:28.305Z,7.71
2024-04-15T22:05:55.973Z,7.81
2024-04-15T22:08:24.077Z,7.90
2024-04-15T22:10:54.192Z,7.91
2024-04-15T22:13:21.819Z,8.02
2024-04-15T22:15:52.152Z,8.17
2024-04-15T22:18:19.735Z,8.18
2024-04-15T22:20:47.507Z,8.17
2024-04-15T22:23:15.184Z,8.16
2024-04-15T22:25:42.740Z,8.24
2024-04-15T22:28:10.016Z,8.25
2024-04-15T22:30:37.608Z,8.14
2024-04-15T22:33:08.079Z,8.24
2024-04-15T22:35:35.846Z,8.06
2024-04-15T22:38:03.491Z,8.20
2024-04-15T22:40:31.123Z,8.10
2024-04-15T22:42:58.860Z,8.14
2024-04-15T22:45:26.349Z,8.24
2024-04-15T22:47:53.978Z,8.12
2024-04-15T22:50:24.024Z,8.11
2024-04-15T22:52:51.615Z,8.08
2024-04-15T22:55:19.626Z,8.24
2024-04-15T22:57:47.636Z,8.25
2024-04-15T23:00:18.067Z,8.27
2024-04-15T23:02:47.907Z,8.28
2024-04-15T23:05:15.765Z,8.31
2024-04-15T23:08:00.623Z,8.40
2024-04-15T23:10:33.411Z,8.43
2024-04-15T23:13:07.160Z,8.41
2024-04-15T23:15:34.667Z,8.50
2024-04-15T23:18:02.225Z,8.51
2024-04-15T23:20:29.813Z,8.55
2024-04-15T23:23:05.760Z,8.64
2024-04-15T23:25:33.193Z,8.65
2024-04-15T23:28:02.078Z,8.69
2024-04-15T23:30:29.967Z,8.74
2024-04-15T23:32:57.340Z,8.70
2024-04-15T23:35:25.133Z,8.72
2024-04-15T23:37:55.473Z,8.81
2024-04-15T23:40:25.935Z,8.74
2024-04-15T23:42:53.490Z,8.63
2024-04-15T23:45:21.376Z,8.45
2024-04-15T23:47:48.788Z,8.31
2024-04-15T23:50:16.737Z,8.36
2024-04-15T23:52:46.449Z,8.32
2024-04-15T23:55:14.384Z,8.18
2024-04-15T23:57:44.704Z,8.10
